Time;durP1;ratioP1;P1;durP2;ratioP2;P2;SDS_P1;SDS_P2;PMS_P1;PMS_P2;Temp;Humidity;BMP_temperature;BMP_pressure;BME280_temperature;BME280_humidity;BME280_pressure;Samples;Min_cycle;Max_cycle;Signal;HPM_P1;HPM_P2
2023/09/05 00:00:02;;;;;;;4.43;3.20;;;;;;;20.67;60.36;98984.19;5134848;27;20036;-93
2023/09/05 00:02:28;;;;;;;5.40;3.75;;;;;;;20.76;60.21;99007.91;5118383;28;20046;-95
2023/09/05 00:04:56;;;;;;;3.78;3.38;;;;;;;20.85;60.15;98998.34;5133844;27;20039;-95
2023/09/05 00:07:22;;;;;;;3.90;2.70;;;;;;;21.26;59.40;99028.03;5115830;28;20109;-95
2023/09/05 00:09:49;;;;;;;5.53;3.28;;;;;;;21.37;59.44;99016.50;5115284;28;20047;-95
2023/09/05 00:12:15;;;;;;;3.92;2.88;;;;;;;21.60;58.79;99022.19;5115995;28;20079;-95
2023/09/05 00:14:41;;;;;;;9.18;3.35;;;;;;;21.41;58.08;98958.53;5105651;28;20040;-95
2023/09/05 00:17:07;;;;;;;3.53;3.13;;;;;;;21.67;58.48;98991.06;5098903;28;20136;-96
2023/09/05 00:19:33;;;;;;;4.60;2.72;;;;;;;21.54;58.72;98985.63;5096750;28;20506;-95
2023/09/05 00:22:00;;;;;;;5.38;3.10;;;;;;;21.27;59.17;98963.97;5104661;28;20051;-95
2023/09/05 00:24:28;;;;;;;4.63;2.97;;;;;;;21.38;58.72;98964.09;5096894;28;20020;-95
2023/09/05 00:26:54;;;;;;;8.18;2.83;;;;;;;21.65;58.44;98993.84;5101865;28;20028;-96
2023/09/05 00:29:20;;;;;;;6.70;3.40;;;;;;;21.47;58.70;98981.56;5104094;28;20048;-95
2023/09/05 00:31:47;;;;;;;5.32;2.95;;;;;;;21.71;58.29;98987.16;5114040;28;20131;-95
2023/09/05 00:34:13;;;;;;;4.90;2.88;;;;;;;21.40;58.56;98956.75;5112675;28;20048;-94
2023/09/05 00:36:40;;;;;;;3.67;1.90;;;;;;;21.42;58.78;98967.50;5111422;28;20394;-96
2023/09/05 00:39:08;;;;;;;5.05;2.80;;;;;;;21.52;57.77;98945.13;5114278;28;20047;-95
2023/09/05 00:41:34;;;;;;;4.88;3.08;;;;;;;21.68;57.88;98990.06;5114539;28;20101;-96
2023/09/05 00:44:00;;;;;;;4.22;3.78;;;;;;;21.58;58.41;98981.72;5104491;28;20036;-95
2023/09/05 00:46:28;;;;;;;4.88;2.88;;;;;;;21.68;57.58;98950.31;5096320;28;20052;-96
2023/09/05 00:48:57;;;;;;;3.67;2.88;;;;;;;21.19;58.35;98934.75;5114161;28;20515;-95
2023/09/05 00:51:23;;;;;;;5.28;3.10;;;;;;;21.18;59.23;98957.34;5111774;28;20060;-95
2023/09/05 00:53:50;;;;;;;7.20;3.20;;;;;;;21.21;59.37;98965.28;5110276;28;20070;-96
2023/09/05 00:56:17;;;;;;;4.05;3.33;;;;;;;21.19;58.88;98937.47;5109124;28;20041;-95
2023/09/05 00:58:43;;;;;;;4.95;3.20;;;;;;;21.37;58.96;98948.00;5101163;28;20048;-96
2023/09/05 01:01:09;;;;;;;3.90;2.78;;;;;;;21.34;59.03;98962.59;5091253;28;20139;-96
2023/09/05 01:03:34;;;;;;;3.45;2.97;;;;;;;21.39;58.75;98976.69;5101780;28;20054;-95
2023/09/05 01:06:06;;;;;;;10.60;2.55;;;;;;;21.25;59.07;98958.69;5090191;28;20418;-95
2023/09/05 01:08:40;;;;;;;8.45;3.25;;;;;;;21.38;58.89;98977.63;5096394;28;20036;-95
2023/09/05 01:11:08;;;;;;;5.30;3.38;;;;;;;21.31;59.07;98941.16;5099782;28;20048;-96
2023/09/05 01:13:41;;;;;;;4.38;2.92;;;;;;;20.85;59.79;98917.25;5093208;28;20020;-96
2023/09/05 01:16:08;;;;;;;3.75;3.00;;;;;;;21.37;57.85;98893.91;5083595;28;20059;-95
2023/09/05 01:18:34;;;;;;;4.85;3.45;;;;;;;21.33;58.12;98894.09;5081005;28;20143;-96
2023/09/05 01:21:15;;;;;;;4.63;3.22;;;;;;;21.50;58.63;98963.31;5087955;28;20047;-95
2023/09/05 01:23:44;;;;;;;3.60;3.15;;;;;;;21.13;59.25;98918.94;5089513;28;20063;-95
2023/09/05 01:26:12;;;;;;;7.55;3.50;;;;;;;20.68;60.28;98894.91;5082119;28;20041;-95
2023/09/05 01:28:43;;;;;;;7.60;3.25;;;;;;;20.87;60.31;98943.19;5094959;28;20047;-93
2023/09/05 01:31:11;;;;;;;5.07;2.85;;;;;;;20.71;60.01;98891.16;5104667;28;20044;-96
2023/09/05 01:33:37;;;;;;;6.57;3.13;;;;;;;21.05;59.19;98900.53;5081680;28;20100;-94
2023/09/05 01:36:04;;;;;;;4.05;3.17;;;;;;;21.29;59.28;98937.69;5107848;28;20094;-95
2023/09/05 01:38:30;;;;;;;3.70;3.10;;;;;;;21.18;59.13;98935.72;5082838;28;20040;-94
2023/09/05 01:40:56;;;;;;;5.03;2.92;;;;;;;21.01;60.16;98931.44;5083113;28;20041;-93
2023/09/05 01:43:23;;;;;;;6.93;2.60;;;;;;;21.34;58.46;98913.91;5099082;28;20401;-96
2023/09/05 01:45:49;;;;;;;5.03;3.03;;;;;;;21.35;58.26;98896.69;5103332;28;20089;-96
2023/09/05 01:48:15;;;;;;;5.25;3.10;;;;;;;21.03;59.25;98880.84;5100927;28;20036;-95
2023/09/05 01:50:41;;;;;;;5.43;2.80;;;;;;;21.00;58.64;98872.09;5095549;28;20066;-96
2023/09/05 01:53:07;;;;;;;4.85;2.95;;;;;;;21.56;58.02;98925.97;5082313;28;20044;-94
2023/09/05 01:55:33;;;;;;;5.25;3.63;;;;;;;21.00;58.89;98880.22;5085402;28;20154;-96
2023/09/05 01:57:59;;;;;;;7.45;2.70;;;;;;;21.29;58.25;98914.22;5078774;28;20101;-96
2023/09/05 02:00:26;;;;;;;5.38;3.72;;;;;;;21.23;58.22;98871.38;5080107;28;20040;-95
2023/09/05 02:02:52;;;;;;;5.32;3.00;;;;;;;21.22;57.88;98887.72;5083321;28;20045;-95
2023/09/05 02:05:18;;;;;;;4.60;3.55;;;;;;;21.65;57.67;98925.34;5078486;28;20135;-95
2023/09/05 02:07:43;;;;;;;5.50;3.03;;;;;;;21.65;57.76;98901.84;5094591;28;20043;-95
2023/09/05 02:10:10;;;;;;;6.70;3.17;;;;;;;21.46;57.97;98932.03;5116546;28;20067;-96
2023/09/05 02:12:36;;;;;;;5.45;3.42;;;;;;;21.24;57.72;98889.31;5089899;28;20055;-95
2023/09/05 02:15:02;;;;;;;8.23;3.33;;;;;;;21.69;57.78;98924.16;5086440;28;20044;-95
2023/09/05 02:17:30;;;;;;;3.97;3.58;;;;;;;21.63;57.71;98925.44;5090316;28;20044;-95
2023/09/05 02:19:56;;;;;;;7.18;2.83;;;;;;;21.64;57.45;98950.66;5090261;28;20032;-95
2023/09/05 02:22:22;;;;;;;4.82;3.63;;;;;;;21.25;58.20;98966.81;5083712;28;20059;-95
2023/09/05 02:24:48;;;;;;;6.30;2.90;;;;;;;21.24;57.74;98945.25;5089761;28;20062;-93
2023/09/05 02:27:14;;;;;;;5.65;4.38;;;;;;;20.68;58.87;98913.81;5101032;28;20040;-95
2023/09/05 02:29:39;;;;;;;5.22;3.65;;;;;;;20.57;58.80;98880.34;5100733;28;20061;-95
2023/09/05 02:32:05;;;;;;;8.55;2.90;;;;;;;20.84;58.25;98894.75;5093094;28;20032;-94
2023/09/05 02:34:33;;;;;;;4.07;2.45;;;;;;;20.76;58.15;98871.94;5099020;28;20051;-96
2023/09/05 02:37:00;;;;;;;5.40;2.28;;;;;;;21.09;58.18;98918.28;5099640;28;20414;-95
2023/09/05 02:39:27;;;;;;;7.28;2.70;;;;;;;20.91;58.41;98922.25;5099103;28;20020;-95
2023/09/05 02:41:52;;;;;;;4.10;3.53;;;;;;;20.78;57.89;98902.41;5115327;28;20519;-94
2023/09/05 02:44:18;;;;;;;5.65;2.88;;;;;;;20.89;57.98;98935.84;5098756;28;20072;-96
2023/09/05 02:46:45;;;;;;;4.80;2.38;;;;;;;21.25;57.45;98930.75;5097439;28;20440;-95
2023/09/05 02:49:11;;;;;;;5.22;3.33;;;;;;;20.64;58.64;98871.75;5099333;28;20032;-95
2023/09/05 02:51:38;;;;;;;4.55;2.83;;;;;;;20.35;59.04;98870.09;5116824;28;20040;-95
2023/09/05 02:54:04;;;;;;;3.95;2.83;;;;;;;20.85;58.73;98915.41;5098447;28;20048;-95
2023/09/05 02:56:30;;;;;;;4.95;2.95;;;;;;;20.59;58.67;98865.81;5098684;28;20040;-95
2023/09/05 02:58:56;;;;;;;4.95;2.92;;;;;;;20.68;58.72;98881.38;5116059;28;20055;-95
2023/09/05 03:01:23;;;;;;;5.75;2.15;;;;;;;20.80;58.78;98878.84;5079905;28;20406;-96
2023/09/05 03:03:49;;;;;;;6.78;3.72;;;;;;;20.85;58.67;98923.50;5078304;28;20020;-95
2023/09/05 03:06:16;;;;;;;4.53;2.70;;;;;;;20.95;58.15;98926.47;5078086;28;20051;-95
2023/09/05 03:08:46;;;;;;;4.88;3.10;;;;;;;20.80;59.22;98946.44;5077751;28;20055;-95
2023/09/05 03:11:14;;;;;;;5.88;3.10;;;;;;;20.47;59.28;98940.41;5077224;28;20090;-94
2023/09/05 03:13:40;;;;;;;6.55;2.88;;;;;;;20.84;58.62;98943.41;5069116;28;20119;-94
2023/09/05 03:16:07;;;;;;;5.22;3.28;;;;;;;20.33;59.67;98918.81;5094814;28;20058;-96
2023/09/05 03:18:32;;;;;;;7.80;3.22;;;;;;;20.42;59.01;98902.00;5100189;28;20046;-95
2023/09/05 03:20:58;;;;;;;5.38;3.20;;;;;;;20.09;59.65;98902.34;5095364;28;20036;-95
2023/09/05 03:23:24;;;;;;;3.63;2.88;;;;;;;20.42;59.41;98931.72;5096384;28;20040;-96
2023/09/05 03:25:52;;;;;;;4.50;2.78;;;;;;;20.43;59.59;98943.41;5097643;28;20028;-95
2023/09/05 03:28:18;;;;;;;5.50;3.30;;;;;;;20.51;58.67;98947.34;5113227;28;20482;-96
2023/09/05 03:30:44;;;;;;;4.03;2.97;;;;;;;20.26;57.79;98882.38;5100737;28;20067;-95
2023/09/05 03:33:10;;;;;;;5.50;3.05;;;;;;;20.44;57.68;98939.72;5098573;28;20040;-96
2023/09/05 03:35:36;;;;;;;4.82;2.72;;;;;;;20.25;58.13;98913.03;5097477;28;20036;-95
2023/09/05 03:38:05;;;;;;;4.18;2.90;;;;;;;19.85;59.40;98885.88;5101067;28;20028;-94
2023/09/05 03:40:31;;;;;;;2.53;1.83;;;;;;;19.52;58.85;98873.53;5103487;28;20428;-96
2023/09/05 03:42:58;;;;;;;4.35;2.90;;;;;;;19.81;58.44;98904.09;5101387;28;20036;-94
2023/09/05 03:45:26;;;;;;;5.53;3.40;;;;;;;20.14;58.19;98938.00;5091124;28;20044;-95
2023/09/05 03:47:52;;;;;;;5.00;2.53;;;;;;;20.25;57.61;98919.28;5099546;28;20464;-94
2023/09/05 03:50:19;;;;;;;5.60;3.05;;;;;;;20.25;57.25;98918.44;5092230;28;20083;-94
2023/09/05 03:52:45;;;;;;;6.35;3.10;;;;;;;19.93;57.41;98875.47;5102778;28;20130;-95
2023/09/05 03:55:12;;;;;;;5.45;2.97;;;;;;;20.44;56.51;98905.47;5097748;28;20059;-96
2023/09/05 03:57:38;;;;;;;5.90;2.95;;;;;;;19.97;57.33;98882.38;5098005;28;20047;-95
2023/09/05 04:00:13;;;;;;;2.88;1.75;;;;;;;20.35;57.04;98916.88;5097454;28;20379;-95
2023/09/05 04:02:40;;;;;;;;;;;;;;;20.41;57.45;98940.78;5106255;28;20448;-95
2023/09/05 04:05:08;;;;;;;3.60;2.30;;;;;;;20.08;57.84;98896.09;5103352;28;19904;-95
2023/09/05 04:07:34;;;;;;;4.85;2.83;;;;;;;20.01;58.01;98886.63;5103330;28;20040;-95
2023/09/05 04:10:02;;;;;;;8.07;3.13;;;;;;;20.41;57.46;98921.88;5102315;28;20096;-95
2023/09/05 04:12:28;;;;;;;3.67;2.63;;;;;;;20.11;58.15;98905.81;5102249;28;20051;-95
2023/09/05 04:14:54;;;;;;;5.95;3.40;;;;;;;19.58;59.01;98848.88;5101608;28;20037;-94
2023/09/05 04:17:28;;;;;;;5.47;3.25;;;;;;;19.76;58.76;98871.16;5094356;28;20131;-93
2023/09/05 04:19:54;;;;;;;3.40;2.72;;;;;;;19.86;59.55;98901.09;5090056;28;20490;-95
2023/09/05 04:22:21;;;;;;;4.85;2.83;;;;;;;20.06;58.37;98906.13;5104128;28;20071;-94
2023/09/05 04:24:51;;;;;;;5.38;2.92;;;;;;;20.00;58.69;98905.66;5090550;28;20027;-96
2023/09/05 04:27:17;;;;;;;4.70;3.28;;;;;;;20.03;58.28;98867.66;5117209;28;20044;-96
2023/09/05 04:29:43;;;;;;;4.25;2.67;;;;;;;20.28;58.06;98888.53;5105615;28;20040;-96
2023/09/05 04:32:09;;;;;;;6.38;1.98;;;;;;;20.13;57.59;98874.19;5105558;28;20386;-94
2023/09/05 04:34:37;;;;;;;6.53;2.90;;;;;;;20.39;57.41;98909.44;5108766;28;20048;-94
2023/09/05 04:37:03;;;;;;;7.72;2.80;;;;;;;20.67;57.08;98949.06;5110105;28;20074;-93
2023/09/05 04:39:29;;;;;;;3.67;2.20;;;;;;;20.07;57.51;98883.53;5090047;28;20464;-94
2023/09/05 04:41:56;;;;;;;4.20;2.58;;;;;;;20.43;56.68;98909.16;5091351;28;20113;-95
2023/09/05 04:44:22;;;;;;;5.43;2.60;;;;;;;20.55;56.99;98923.66;5089261;28;20143;-94
2023/09/05 04:46:48;;;;;;;3.83;2.70;;;;;;;20.84;56.69;98947.94;5087478;28;20102;-94
2023/09/05 04:49:14;;;;;;;6.45;2.90;;;;;;;20.44;56.67;98888.41;5103703;28;20093;-95
2023/09/05 04:51:41;;;;;;;9.48;3.17;;;;;;;20.47;56.08;98880.06;5103689;28;20047;-95
2023/09/05 04:54:07;;;;;;;5.88;3.30;;;;;;;20.14;57.47;98875.91;5101240;28;20040;-95
2023/09/05 04:56:33;;;;;;;4.30;2.60;;;;;;;20.11;57.26;98885.09;5102494;28;20535;-95
2023/09/05 04:58:59;;;;;;;4.15;2.70;;;;;;;20.63;56.74;98939.44;5103421;28;20502;-94
2023/09/05 05:01:25;;;;;;;4.63;2.90;;;;;;;20.43;57.09;98930.75;5102609;28;20046;-95
2023/09/05 05:03:51;;;;;;;3.83;3.00;;;;;;;20.20;56.50;98871.97;5105439;28;20496;-94
2023/09/05 05:06:17;;;;;;;3.45;3.00;;;;;;;19.66;58.27;98878.03;5094709;28;20060;-95
2023/09/05 05:08:44;;;;;;;4.32;2.97;;;;;;;20.17;58.18;98924.34;5099009;28;20500;-96
2023/09/05 05:11:10;;;;;;;6.85;3.58;;;;;;;19.94;58.27;98922.22;5102460;28;20040;-95
2023/09/05 05:13:37;;;;;;;6.50;3.45;;;;;;;19.43;59.26;98860.59;5105129;28;20041;-95
2023/09/05 05:16:03;;;;;;;3.60;2.30;;;;;;;19.81;58.48;98895.16;5105686;28;20469;-95
2023/09/05 05:18:29;;;;;;;7.88;2.72;;;;;;;20.04;58.26;98920.69;5106794;28;20055;-96
2023/09/05 05:20:55;;;;;;;4.18;3.13;;;;;;;20.24;57.70;98905.91;5102625;28;20036;-96
2023/09/05 05:23:20;;;;;;;7.53;3.00;;;;;;;20.06;57.74;98895.31;5102624;28;20127;-95
2023/09/05 05:25:48;;;;;;;6.10;2.60;;;;;;;20.06;58.68;98919.63;5088321;28;20394;-96
2023/09/05 05:28:14;;;;;;;3.58;2.67;;;;;;;20.35;57.67;98913.31;5081310;28;20041;-96
2023/09/05 05:30:40;;;;;;;5.28;3.38;;;;;;;20.32;58.83;98892.78;5080220;28;20071;-95
2023/09/05 05:33:05;;;;;;;7.13;2.22;;;;;;;20.65;57.37;98934.78;5087686;28;20385;-94
2023/09/05 05:35:32;;;;;;;4.20;2.00;;;;;;;20.23;58.14;98934.75;5116004;28;20463;-95
2023/09/05 05:37:58;;;;;;;4.30;2.92;;;;;;;20.74;57.05;98958.50;5100027;28;20497;-94
2023/09/05 05:40:24;;;;;;;4.65;3.42;;;;;;;20.80;56.94;98917.56;5085343;28;20140;-95
2023/09/05 05:42:51;;;;;;;5.50;3.58;;;;;;;21.07;56.34;98916.66;5078457;28;20490;-94
2023/09/05 05:45:17;;;;;;;3.92;3.10;;;;;;;21.39;55.94;98948.75;5077113;28;20041;-94
2023/09/05 05:47:43;;;;;;;4.60;2.90;;;;;;;21.53;55.43;98946.88;5078293;28;20053;-95
2023/09/05 05:50:09;;;;;;;5.35;3.17;;;;;;;21.25;55.60;98930.75;5085534;28;20145;-95
2023/09/05 05:52:35;;;;;;;6.10;3.90;;;;;;;21.35;55.58;98956.22;5079829;28;20048;-95
2023/09/05 05:55:01;;;;;;;4.60;2.28;;;;;;;21.34;56.71;98958.06;5078687;28;20512;-94
2023/09/05 05:57:27;;;;;;;6.18;2.95;;;;;;;21.32;56.07;98913.16;5100099;28;20056;-95
2023/09/05 05:59:54;;;;;;;3.35;2.63;;;;;;;21.20;57.03;98941.88;5098965;28;20044;-94
2023/09/05 06:02:20;;;;;;;4.57;3.22;;;;;;;21.19;58.27;98920.34;5098188;28;20134;-94
2023/09/05 06:04:46;;;;;;;6.30;3.30;;;;;;;21.25;58.20;98968.63;5087212;28;20074;-93
2023/09/05 06:07:12;;;;;;;2.92;2.58;;;;;;;21.00;58.04;98928.88;5094979;28;20161;-95
2023/09/05 06:09:38;;;;;;;6.05;3.47;;;;;;;21.03;57.09;98905.19;5088899;28;20079;-93
2023/09/05 06:12:05;;;;;;;4.30;2.67;;;;;;;21.38;58.10;98941.59;5115179;28;20123;-95
2023/09/05 06:14:31;;;;;;;7.25;3.33;;;;;;;20.86;58.04;98930.66;5091895;28;20059;-94
2023/09/05 06:16:58;;;;;;;8.10;3.05;;;;;;;21.18;58.14;98921.34;5088791;28;20040;-95
2023/09/05 06:19:24;;;;;;;6.00;3.67;;;;;;;21.21;57.79;98943.66;5086198;28;20048;-95
2023/09/05 06:21:51;;;;;;;6.30;3.55;;;;;;;21.30;57.45;98932.19;5085849;28;20045;-93
2023/09/05 06:24:18;;;;;;;4.93;3.30;;;;;;;21.62;56.64;98920.13;5092159;28;20036;-95
2023/09/05 06:26:45;;;;;;;6.28;3.42;;;;;;;21.65;56.81;98928.03;5099066;28;20032;-95
2023/09/05 06:29:10;;;;;;;5.57;3.35;;;;;;;21.50;57.31;98947.06;5099155;28;20036;-94
2023/09/05 06:31:36;;;;;;;5.85;3.30;;;;;;;21.88;56.65;98956.19;5097495;28;20113;-95
2023/09/05 06:34:04;;;;;;;8.90;4.38;;;;;;;21.67;57.14;98967.56;5088748;28;20059;-95
2023/09/05 06:36:30;;;;;;;5.07;2.67;;;;;;;21.64;56.82;98907.34;5085221;28;20410;-95
2023/09/05 06:38:56;;;;;;;8.15;4.25;;;;;;;22.16;56.12;98906.31;5103187;28;20042;-95
2023/09/05 06:41:21;;;;;;;7.22;3.53;;;;;;;22.18;55.49;98919.78;5102140;28;20136;-95
2023/09/05 06:43:47;;;;;;;6.18;3.28;;;;;;;22.37;54.71;98895.81;5100692;28;20097;-94
2023/09/05 06:46:13;;;;;;;6.20;3.70;;;;;;;22.14;56.09;98927.25;5116647;28;20032;-95
2023/09/05 06:48:40;;;;;;;4.88;3.83;;;;;;;22.19;55.69;98889.88;5084873;28;20040;-94
2023/09/05 06:51:07;;;;;;;3.92;2.63;;;;;;;22.19;56.29;98938.63;5092872;28;20020;-93
2023/09/05 06:53:33;;;;;;;5.57;3.33;;;;;;;21.96;55.61;98907.78;5104038;28;20050;-94
2023/09/05 06:55:59;;;;;;;6.18;3.00;;;;;;;21.92;56.02;98904.44;5089992;28;20460;-95
2023/09/05 06:58:26;;;;;;;4.10;3.35;;;;;;;22.46;55.16;98919.50;5079788;28;20044;-96
2023/09/05 07:00:54;;;;;;;8.38;3.53;;;;;;;22.77;54.25;98934.38;5080137;28;20055;-95
2023/09/05 07:03:21;;;;;;;8.48;3.70;;;;;;;22.62;54.15;98943.66;5080555;28;20040;-95
2023/09/05 07:05:47;;;;;;;5.70;4.72;;;;;;;22.85;54.81;98931.06;5081467;28;20044;-95
2023/09/05 07:08:14;;;;;;;7.32;3.20;;;;;;;22.80;54.07;98936.00;5086224;28;20177;-96
2023/09/05 07:10:42;;;;;;;6.97;4.30;;;;;;;23.01;53.07;98919.09;5101938;28;20048;-96
2023/09/05 07:13:07;;;;;;;5.80;2.90;;;;;;;23.03;53.52;98955.13;5107635;28;20045;-94
2023/09/05 07:15:33;;;;;;;3.80;2.40;;;;;;;23.09;52.98;98914.81;5094317;28;20362;-93
2023/09/05 07:17:59;;;;;;;4.88;3.10;;;;;;;23.34;52.04;98916.53;5085648;28;20036;-92
2023/09/05 07:20:25;;;;;;;6.75;3.28;;;;;;;23.70;51.42;98924.63;5081853;28;20151;-94
2023/09/05 07:22:51;;;;;;;5.65;3.58;;;;;;;24.03;51.13;98966.41;5095793;28;20063;-94
2023/09/05 07:25:19;;;;;;;4.78;3.33;;;;;;;23.99;50.61;98942.22;5091903;28;20036;-94
2023/09/05 07:27:44;;;;;;;5.10;3.15;;;;;;;23.82;51.53;98950.84;5092111;28;20112;-94
2023/09/05 07:30:10;;;;;;;4.32;2.80;;;;;;;23.43;51.52;98911.38;5087413;28;20068;-94
2023/09/05 07:32:38;;;;;;;5.57;3.90;;;;;;;23.91;51.54;98966.41;5075301;28;20041;-93
2023/09/05 07:35:04;;;;;;;8.02;3.08;;;;;;;23.92;51.89;98968.16;5082045;28;20039;-94
2023/09/05 07:37:30;;;;;;;6.65;3.10;;;;;;;24.09;50.68;98938.78;5112620;28;20059;-93
2023/09/05 07:39:56;;;;;;;7.88;3.35;;;;;;;24.61;50.64;98978.06;5099015;28;20134;-94
2023/09/05 07:42:24;;;;;;;5.95;3.10;;;;;;;24.06;50.30;98950.75;5089074;28;20156;-94
2023/09/05 07:44:52;;;;;;;6.53;3.47;;;;;;;24.88;49.46;98942.28;5085441;28;20490;-93
2023/09/05 07:47:18;;;;;;;5.53;3.58;;;;;;;24.76;48.64;98948.75;5087295;28;20068;-93
2023/09/05 07:49:44;;;;;;;6.82;3.20;;;;;;;24.20;49.74;98930.63;5085419;28;20068;-92
2023/09/05 07:52:10;;;;;;;5.15;3.25;;;;;;;24.87;50.31;98967.75;5087640;28;20036;-93
2023/09/05 07:54:36;;;;;;;6.22;3.10;;;;;;;25.13;48.76;98965.56;5081595;28;20044;-94
2023/09/05 07:57:03;;;;;;;5.03;3.28;;;;;;;24.85;48.57;98964.28;5089616;28;20048;-93
2023/09/05 07:59:31;;;;;;;5.75;2.85;;;;;;;24.93;48.19;98964.53;5092711;28;20063;-93
2023/09/05 08:01:57;;;;;;;5.47;3.38;;;;;;;25.44;46.97;98973.03;5083104;28;20028;-95
2023/09/05 08:04:23;;;;;;;3.83;2.38;;;;;;;25.01;47.71;98974.78;5086965;28;20446;-94
2023/09/05 08:06:49;;;;;;;5.85;3.72;;;;;;;24.23;48.85;98978.44;5087394;28;20033;-92
2023/09/05 08:09:15;;;;;;;3.83;2.72;;;;;;;25.04;46.77;98965.50;5090352;28;20547;-93
2023/09/05 08:11:41;;;;;;;4.72;2.85;;;;;;;25.07;47.63;98952.50;5087665;28;20036;-93
2023/09/05 08:14:07;;;;;;;4.90;2.85;;;;;;;24.78;46.87;98974.81;5113736;28;20036;-93
2023/09/05 08:16:34;;;;;;;7.03;3.55;;;;;;;24.19;47.83;98953.34;5087382;28;20071;-92
2023/09/05 08:19:00;;;;;;;3.63;2.78;;;;;;;24.31;47.66;98941.50;5091345;28;20496;-93
2023/09/05 08:21:26;;;;;;;4.97;3.42;;;;;;;24.15;46.19;98924.69;5091461;28;20113;-93
2023/09/05 08:23:52;;;;;;;5.75;3.33;;;;;;;24.69;45.52;98921.19;5095920;28;20046;-92
2023/09/05 08:26:18;;;;;;;9.00;3.42;;;;;;;24.25;45.93;98958.31;5092149;28;20032;-93
2023/09/05 08:28:45;;;;;;;3.80;3.20;;;;;;;24.03;46.00;98963.69;5088951;28;20563;-92
2023/09/05 08:31:11;;;;;;;8.15;2.97;;;;;;;24.73;44.90;98932.69;5090142;28;20043;-94
2023/09/05 08:33:39;;;;;;;9.50;2.65;;;;;;;25.37;44.54;98949.06;5091014;28;20417;-93
2023/09/05 08:36:05;;;;;;;3.47;2.75;;;;;;;25.83;42.32;98952.41;5092023;28;20040;-94
2023/09/05 08:38:31;;;;;;;4.60;3.00;;;;;;;25.79;43.42;98915.53;5086750;28;20049;-95
2023/09/05 08:41:00;;;;;;;4.15;3.08;;;;;;;24.76;44.29;98916.13;5089592;28;20044;-94
2023/09/05 08:43:26;;;;;;;5.93;2.90;;;;;;;24.95;43.83;98932.63;5089547;28;20024;-94
2023/09/05 08:45:54;;;;;;;5.57;2.83;;;;;;;25.74;41.71;98955.91;5087741;28;20064;-96
2023/09/05 08:48:20;;;;;;;3.25;2.83;;;;;;;25.54;42.27;98954.91;5092422;28;20047;-95
2023/09/05 08:50:48;;;;;;;5.05;2.90;;;;;;;25.33;41.66;98958.50;5088362;28;20058;-93
2023/09/05 08:53:16;;;;;;;6.40;2.83;;;;;;;25.38;40.55;98920.84;5091267;28;20032;-94
2023/09/05 08:55:42;;;;;;;6.15;3.15;;;;;;;25.56;41.96;98936.59;5088814;28;20040;-96
2023/09/05 08:58:13;;;;;;;4.80;2.65;;;;;;;26.34;39.38;98947.94;5088080;28;20036;-95
2023/09/05 09:00:39;;;;;;;4.32;2.78;;;;;;;25.82;38.37;98888.00;5087144;28;20040;-94
2023/09/05 09:03:06;;;;;;;4.50;3.10;;;;;;;26.12;38.51;98929.94;5087784;28;20497;-94
2023/09/05 09:05:32;;;;;;;6.63;2.90;;;;;;;26.07;37.46;98919.44;5102634;28;20056;-95
2023/09/05 09:07:59;;;;;;;3.28;2.42;;;;;;;25.76;37.50;98900.31;5096700;28;20047;-94
2023/09/05 09:10:25;;;;;;;4.38;2.92;;;;;;;26.22;37.86;98945.31;5112914;28;20048;-94
2023/09/05 09:12:54;;;;;;;4.20;2.88;;;;;;;25.93;37.85;98896.13;5092836;28;20062;-95
2023/09/05 09:15:23;;;;;;;3.58;2.88;;;;;;;26.65;37.26;98924.25;5093256;28;20040;-94
2023/09/05 09:17:50;;;;;;;4.97;3.25;;;;;;;25.85;38.31;98925.00;5094497;28;20135;-93
2023/09/05 09:20:18;;;;;;;4.20;2.70;;;;;;;25.93;37.48;98919.78;5099112;28;20048;-95
2023/09/05 09:22:45;;;;;;;3.85;2.40;;;;;;;25.96;37.51;98868.63;5081027;28;20122;-95
2023/09/05 09:25:14;;;;;;;4.60;2.53;;;;;;;25.43;38.36;98882.34;5096513;28;20051;-95
2023/09/05 09:27:42;;;;;;;4.70;2.80;;;;;;;25.69;37.94;98868.31;5103669;28;20041;-96
2023/09/05 09:30:08;;;;;;;5.85;2.90;;;;;;;26.46;36.48;98902.34;5078278;28;20044;-96
2023/09/05 09:32:35;;;;;;;4.63;3.03;;;;;;;26.46;36.29;98875.97;5076153;28;20044;-94
2023/09/05 09:35:06;;;;;;;3.28;2.88;;;;;;;27.53;35.32;98929.81;5113293;28;20051;-95
2023/09/05 09:37:33;;;;;;;4.25;2.90;;;;;;;27.14;34.43;98865.13;5099246;28;20048;-95
2023/09/05 09:40:00;;;;;;;4.43;2.78;;;;;;;27.04;34.70;98908.81;5086755;28;20401;-96
2023/09/05 09:42:28;;;;;;;4.90;2.83;;;;;;;27.04;35.92;98892.44;5087903;28;20073;-95
2023/09/05 09:44:54;;;;;;;5.95;3.15;;;;;;;27.18;35.45;98858.38;5090899;28;20036;-94
2023/09/05 09:47:21;;;;;;;5.28;3.22;;;;;;;26.63;36.54;98897.13;5095527;28;20052;-94
2023/09/05 09:49:49;;;;;;;4.18;2.83;;;;;;;25.66;39.54;98876.75;5093068;28;20047;-95
2023/09/05 09:52:17;;;;;;;4.13;2.92;;;;;;;25.30;40.91;98887.97;5094580;28;20509;-95
2023/09/05 09:54:44;;;;;;;5.45;3.22;;;;;;;25.71;41.77;98912.63;5112404;28;20044;-95
2023/09/05 09:57:15;;;;;;;4.07;3.25;;;;;;;25.72;41.55;98866.19;5084296;28;20498;-94
2023/09/05 09:59:45;;;;;;;4.93;2.80;;;;;;;25.52;40.85;98880.66;5110546;28;20063;-93
2023/09/05 10:02:14;;;;;;;3.65;2.50;;;;;;;25.47;40.58;98864.75;5098153;28;20418;-95
2023/09/05 10:04:41;;;;;;;4.25;3.10;;;;;;;25.34;41.13;98881.28;5099370;28;20047;-96
2023/09/05 10:07:11;;;;;;;6.72;3.10;;;;;;;24.98;41.27;98848.03;5105159;28;20077;-94
2023/09/05 10:09:37;;;;;;;6.57;2.60;;;;;;;25.58;41.54;98901.91;5106414;28;20044;-95
2023/09/05 10:12:05;;;;;;;5.28;2.60;;;;;;;25.56;40.22;98888.44;5096149;28;20056;-96
2023/09/05 10:14:32;;;;;;;3.38;2.88;;;;;;;25.67;40.81;98919.31;5102598;28;20052;-93
2023/09/05 10:17:00;;;;;;;6.13;2.58;;;;;;;26.23;39.90;98887.06;5091770;28;20036;-93
2023/09/05 10:19:27;;;;;;;5.15;3.13;;;;;;;26.22;38.25;98899.00;5105098;28;20042;-96
2023/09/05 10:21:55;;;;;;;4.72;2.92;;;;;;;25.83;39.64;98906.09;5092699;28;20037;-94
2023/09/05 10:24:22;;;;;;;8.38;2.70;;;;;;;26.32;40.19;98879.06;5102993;28;20049;-95
2023/09/05 10:26:48;;;;;;;5.43;2.88;;;;;;;26.76;38.62;98823.22;5084063;28;20109;-95
2023/09/05 10:29:34;;;;;;;5.75;2.92;;;;;;;28.00;37.06;98899.81;5094433;28;20500;-95
2023/09/05 10:32:14;;;;;;;6.00;3.38;;;;;;;27.47;37.04;98864.84;5097960;28;20043;-95
2023/09/05 10:34:58;;;;;;;5.05;2.88;;;;;;;27.33;37.20;98856.09;5086962;28;20048;-94
2023/09/05 10:37:28;;;;;;;5.60;2.75;;;;;;;26.44;39.84;98842.50;5097990;28;20040;-94
2023/09/05 10:39:55;;;;;;;4.70;2.70;;;;;;;25.99;40.71;98857.44;5095891;28;20085;-91
2023/09/05 10:42:28;;;;;;;6.20;2.70;;;;;;;25.54;40.73;98856.88;5083579;28;20072;-92
2023/09/05 10:44:55;;;;;;;5.93;3.05;;;;;;;25.93;39.93;98865.28;5087224;28;20044;-93
2023/09/05 10:47:28;;;;;;;5.03;3.35;;;;;;;26.49;39.43;98869.34;5083955;28;20047;-92
2023/09/05 10:49:58;;;;;;;4.45;3.50;;;;;;;26.19;38.97;98890.22;5076381;28;20150;-91
2023/09/05 10:52:27;;;;;;;4.88;2.38;;;;;;;26.68;38.89;98858.50;5087118;28;20089;-94
2023/09/05 10:54:53;;;;;;;7.53;2.97;;;;;;;26.99;38.71;98840.13;5083506;28;20040;-92
2023/09/05 10:57:37;;;;;;;4.18;3.03;;;;;;;26.99;37.84;98877.47;5090304;28;20036;-93
2023/09/05 11:03:13;;;;;;;5.78;2.13;;;;;;;27.34;38.76;98846.03;5208702;27;20374;-93
2023/09/05 11:05:40;;;;;;;4.38;2.03;;;;;;;26.99;39.64;98818.28;5176469;27;20038;-93
2023/09/05 11:08:19;;;;;;;7.72;1.98;;;;;;;27.05;39.50;98836.84;5176827;27;20132;-95
2023/09/05 11:10:45;;;;;;;4.95;2.10;;;;;;;26.43;40.75;98848.94;5174682;27;20086;-92
2023/09/05 11:13:14;;;;;;;7.40;2.10;;;;;;;25.97;40.82;98847.69;5180684;27;20038;-93
2023/09/05 11:15:43;;;;;;;3.58;1.73;;;;;;;26.20;39.70;98830.13;5173871;27;20060;-93
2023/09/05 11:18:11;;;;;;;4.55;1.75;;;;;;;25.97;39.39;98821.28;5174391;27;20087;-95
2023/09/05 11:20:40;;;;;;;4.88;1.50;;;;;;;26.01;39.23;98776.41;5177247;27;20399;-94
2023/09/05 11:23:11;;;;;;;3.63;1.63;;;;;;;26.14;39.48;98791.66;5175489;27;20038;-93
2023/09/05 11:25:41;;;;;;;5.00;1.88;;;;;;;26.48;38.85;98804.91;5167756;27;20034;-95
2023/09/05 11:28:07;;;;;;;2.53;1.63;;;;;;;26.97;37.01;98763.00;5175288;27;20025;-96
2023/09/05 11:30:35;;;;;;;3.72;1.73;;;;;;;26.50;38.12;98778.34;5177785;27;20034;-93
2023/09/05 11:33:05;;;;;;;4.28;1.95;;;;;;;25.85;39.10;98758.84;5176784;27;20047;-92
2023/09/05 11:35:31;;;;;;;4.63;1.70;;;;;;;26.68;37.75;98763.03;5173578;27;20030;-94